createdAt,value
2023-08-09T00:01:10.005Z,17.28
2023-08-09T00:03:38.314Z,17.27
2023-08-09T00:06:06.423Z,17.21
2023-08-09T00:08:34.449Z,17.30
2023-08-09T00:11:02.563Z,17.29
2023-08-09T00:13:30.828Z,17.53
2023-08-09T00:16:00.286Z,17.47
2023-08-09T00:18:28.343Z,17.36
2023-08-09T00:20:58.028Z,17.27
2023-08-09T00:23:26.339Z,17.20
2023-08-09T00:25:54.466Z,17.15
2023-08-09T00:28:22.554Z,17.02
2023-08-09T00:30:50.725Z,17.10
2023-08-09T00:33:20.561Z,17.02
2023-08-09T00:35:48.710Z,16.86
2023-08-09T00:38:16.825Z,16.88
2023-08-09T00:40:44.835Z,16.85
2023-08-09T00:43:13.096Z,16.18
2023-08-09T00:45:47.035Z,16.85
2023-08-09T00:48:15.451Z,16.87
2023-08-09T00:50:44.904Z,16.89
2023-08-09T00:53:13.073Z,16.82
2023-08-09T00:55:41.625Z,16.38
2023-08-09T00:58:09.951Z,16.33
2023-08-09T01:00:38.363Z,16.68
2023-08-09T01:03:06.751Z,16.52
2023-08-09T01:05:39.371Z,16.63
2023-08-09T01:08:16.777Z,16.49
2023-08-09T01:10:52.063Z,16.60
2023-08-09T01:13:21.378Z,16.63
2023-08-09T01:15:51.344Z,16.74
2023-08-09T01:18:20.148Z,17.00
2023-08-09T01:20:51.089Z,17.01
2023-08-09T01:23:22.040Z,16.72
2023-08-09T01:25:51.548Z,16.77
2023-08-09T01:28:19.565Z,16.80
2023-08-09T01:30:47.851Z,16.76
2023-08-09T01:33:17.121Z,16.78
2023-08-09T01:35:54.911Z,16.69
2023-08-09T01:38:28.909Z,16.62
2023-08-09T01:40:58.870Z,16.78
2023-08-09T01:43:27.991Z,16.67
2023-08-09T01:45:56.658Z,16.58
2023-08-09T01:48:24.785Z,16.51
2023-08-09T01:50:53.196Z,16.38
2023-08-09T01:53:21.318Z,16.45
2023-08-09T01:55:49.426Z,16.38
2023-08-09T01:58:20.508Z,16.46
2023-08-09T02:00:48.719Z,16.67
2023-08-09T02:03:16.890Z,16.54
2023-08-09T02:05:44.840Z,16.51
2023-08-09T02:08:14.047Z,16.47
2023-08-09T02:10:42.114Z,16.44
2023-08-09T02:13:10.069Z,16.50
2023-08-09T02:15:39.494Z,16.15
2023-08-09T02:18:07.715Z,16.32
2023-08-09T02:20:36.658Z,15.81
2023-08-09T02:23:06.273Z,15.92
2023-08-09T02:25:34.333Z,15.85
2023-08-09T02:28:02.371Z,15.99
2023-08-09T02:30:30.606Z,15.97
2023-08-09T02:33:00.461Z,15.89
2023-08-09T02:35:35.202Z,15.82
2023-08-09T02:38:03.773Z,15.87
2023-08-09T02:40:31.763Z,15.87
2023-08-09T02:42:59.813Z,15.67
2023-08-09T02:45:28.180Z,15.69
2023-08-09T02:47:56.259Z,15.24
2023-08-09T02:50:25.709Z,15.58
2023-08-09T02:52:53.761Z,15.39
2023-08-09T02:55:21.814Z,14.55
2023-08-09T02:57:49.895Z,15.36
2023-08-09T03:00:18.158Z,15.36
2023-08-09T03:02:46.265Z,15.26
2023-08-09T03:05:14.302Z,15.18
2023-08-09T03:07:43.835Z,15.13
2023-08-09T03:10:12.120Z,15.02
2023-08-09T03:12:40.144Z,14.86
2023-08-09T03:15:08.550Z,14.15
2023-08-09T03:17:36.702Z,14.66
2023-08-09T03:20:10.112Z,14.71
2023-08-09T03:22:38.185Z,14.41
2023-08-09T03:25:08.302Z,14.93
2023-08-09T03:27:36.544Z,14.97
2023-08-09T03:30:06.392Z,15.08
2023-08-09T03:32:34.882Z,15.11
2023-08-09T03:35:04.187Z,14.99
2023-08-09T03:37:32.200Z,15.10
2023-08-09T03:40:00.351Z,14.98
2023-08-09T03:42:29.984Z,14.89
2023-08-09T03:44:58.054Z,14.83
2023-08-09T03:47:26.128Z,14.96
2023-08-09T03:49:54.195Z,14.91
2023-08-09T03:52:22.219Z,14.78
2023-08-09T03:54:53.379Z,14.67
2023-08-09T03:57:22.764Z,14.94
2023-08-09T03:59:52.247Z,14.89
2023-08-09T04:02:20.300Z,14.97
2023-08-09T04:04:48.575Z,14.82
2023-08-09T04:07:16.636Z,14.75
2023-08-09T04:09:44.825Z,14.94
2023-08-09T04:12:12.957Z,14.99
2023-08-09T04:14:41.029Z,14.91
2023-08-09T04:17:10.376Z,15.02
2023-08-09T04:19:39.135Z,15.18
2023-08-09T04:22:07.220Z,15.26
2023-08-09T04:24:35.770Z,15.71
2023-08-09T04:27:04.294Z,15.49
2023-08-09T04:29:32.494Z,15.57
2023-08-09T04:32:00.548Z,15.58
2023-08-09T04:34:30.756Z,15.62
2023-08-09T04:36:58.818Z,15.78
2023-08-09T04:39:27.042Z,16.32
2023-08-09T04:41:55.123Z,18.06
2023-08-09T04:44:23.248Z,19.50
2023-08-09T04:46:51.333Z,19.58
2023-08-09T04:49:19.583Z,20.25
2023-08-09T04:51:49.265Z,20.75
2023-08-09T04:54:17.457Z,20.13
2023-08-09T04:56:45.545Z,20.39
2023-08-09T04:59:13.578Z,20.28
2023-08-09T05:01:41.681Z,20.41
2023-08-09T05:04:10.281Z,20.27
2023-08-09T05:06:38.391Z,20.47
2023-08-09T05:09:08.326Z,20.32
2023-08-09T05:11:36.381Z,20.64
2023-08-09T05:14:04.505Z,21.35
2023-08-09T05:16:32.604Z,22.15
2023-08-09T05:19:00.577Z,22.97
2023-08-09T05:21:28.582Z,23.44
2023-08-09T05:23:56.571Z,23.11
2023-08-09T05:26:26.016Z,24.20
2023-08-09T05:28:54.152Z,24.13
2023-08-09T05:31:24.792Z,23.29
2023-08-09T05:33:53.118Z,22.98
2023-08-09T05:36:21.151Z,22.38
2023-08-09T05:38:49.092Z,21.76
2023-08-09T05:41:17.186Z,21.68
2023-08-09T05:43:46.617Z,22.38
2023-08-09T05:46:14.618Z,23.07
2023-08-09T05:48:42.800Z,22.94
2023-08-09T05:51:10.974Z,23.49
2023-08-09T05:53:39.271Z,23.20
2023-08-09T05:56:07.417Z,23.55
2023-08-09T05:58:35.443Z,23.41
2023-08-09T06:01:05.803Z,22.79
2023-08-09T06:03:33.928Z,22.97
2023-08-09T06:06:02.610Z,22.75
2023-08-09T06:08:30.669Z,22.80
2023-08-09T06:10:58.659Z,22.98
2023-08-09T06:13:27.100Z,23.66
2023-08-09T06:15:55.216Z,24.58
2023-08-09T06:18:24.778Z,24.14
2023-08-09T06:20:52.914Z,24.63
2023-08-09T06:23:20.892Z,24.91
2023-08-09T06:25:54.073Z,24.21
2023-08-09T06:28:22.250Z,24.96
2023-08-09T06:30:50.453Z,24.71
2023-08-09T06:33:19.330Z,23.19
2023-08-09T06:35:48.703Z,24.09
2023-08-09T06:38:16.724Z,24.32
2023-08-09T06:40:45.090Z,24.67
2023-08-09T06:43:13.163Z,24.48
2023-08-09T06:45:41.176Z,25.02
2023-08-09T06:48:10.423Z,25.09
2023-08-09T06:50:38.853Z,24.99
2023-08-09T06:53:09.213Z,24.91
2023-08-09T06:55:37.290Z,25.50
2023-08-09T06:58:05.698Z,26.28
2023-08-09T07:00:33.839Z,26.19
2023-08-09T07:03:02.076Z,25.02
2023-08-09T07:05:30.111Z,24.67
2023-08-09T07:08:00.075Z,25.32
2023-08-09T07:10:31.328Z,25.75
2023-08-09T07:12:59.570Z,26.33
2023-08-09T07:15:28.585Z,27.15
2023-08-09T07:17:56.774Z,27.12
2023-08-09T07:20:24.777Z,27.37
2023-08-09T07:22:54.015Z,27.67
2023-08-09T07:25:22.240Z,26.85
2023-08-09T07:27:51.757Z,26.66
2023-08-09T07:30:20.295Z,26.66
2023-08-09T07:32:49.148Z,26.23
2023-08-09T07:35:19.267Z,27.02
2023-08-09T07:37:48.212Z,26.62
2023-08-09T07:40:16.738Z,25.77
2023-08-09T07:42:45.027Z,25.72
2023-08-09T07:45:15.239Z,26.80
2023-08-09T07:47:44.019Z,27.42
2023-08-09T07:50:12.990Z,27.79
2023-08-09T07:52:41.065Z,27.74
2023-08-09T07:55:09.757Z,28.09
2023-08-09T07:57:37.834Z,27.44
2023-08-09T08:00:08.017Z,27.18
2023-08-09T08:02:37.404Z,27.30
2023-08-09T08:05:05.844Z,27.39
2023-08-09T08:07:33.915Z,27.47
2023-08-09T08:10:11.563Z,27.53
2023-08-09T08:12:41.143Z,27.87
2023-08-09T08:15:10.063Z,28.47
2023-08-09T08:17:39.557Z,28.76
2023-08-09T08:20:12.054Z,27.79
2023-08-09T08:22:40.204Z,28.84
2023-08-09T08:25:09.293Z,29.34
2023-08-09T08:27:39.150Z,29.79
2023-08-09T08:30:10.068Z,29.26
2023-08-09T08:32:39.958Z,29.81
2023-08-09T08:35:14.366Z,29.73
2023-08-09T08:37:43.574Z,30.17
2023-08-09T08:40:18.890Z,29.29
2023-08-09T08:42:47.953Z,29.39
2023-08-09T08:45:19.839Z,30.33
2023-08-09T08:47:50.414Z,30.04
2023-08-09T08:50:19.765Z,28.87
2023-08-09T08:52:49.450Z,29.15
2023-08-09T08:55:17.998Z,29.91
2023-08-09T08:57:49.435Z,30.27
2023-08-09T09:02:51.257Z,28.93
2023-08-09T09:05:19.989Z,29.21
2023-08-09T09:07:50.955Z,30.10
2023-08-09T09:10:20.140Z,29.18
2023-08-09T09:12:48.191Z,29.29
2023-08-09T09:15:16.233Z,29.78
2023-08-09T09:17:46.263Z,29.61
2023-08-09T09:20:22.225Z,29.58
2023-08-09T09:22:50.439Z,29.47
2023-08-09T09:25:19.727Z,29.51
2023-08-09T09:27:50.827Z,29.85
2023-08-09T09:30:20.893Z,29.77
2023-08-09T09:33:00.864Z,29.80
2023-08-09T09:35:33.937Z,30.22
2023-08-09T09:38:03.814Z,30.82
2023-08-09T09:40:36.963Z,30.51
2023-08-09T09:43:06.711Z,30.71
2023-08-09T09:45:37.848Z,30.62
2023-08-09T09:48:06.596Z,31.10
2023-08-09T09:50:36.043Z,31.94
2023-08-09T09:53:06.040Z,31.42
2023-08-09T09:55:37.763Z,30.70
2023-08-09T09:58:05.924Z,30.45
2023-08-09T10:00:34.638Z,29.99
2023-08-09T10:03:05.273Z,30.24
2023-08-09T10:05:38.888Z,31.26
2023-08-09T10:08:14.298Z,31.30
2023-08-09T10:10:45.705Z,31.24
2023-08-09T10:13:25.450Z,31.94
2023-08-09T10:15:56.658Z,30.74
2023-08-09T10:18:29.822Z,30.49
2023-08-09T10:21:03.708Z,30.76
2023-08-09T10:23:32.028Z,30.79
2023-08-09T10:26:00.928Z,30.63
2023-08-09T10:28:51.041Z,31.51
2023-08-09T10:31:47.574Z,32.44
2023-08-09T10:34:16.728Z,31.07
2023-08-09T10:36:55.950Z,30.34
2023-08-09T10:39:34.958Z,31.27
2023-08-09T10:42:13.733Z,31.51
2023-08-09T10:44:53.735Z,31.32
2023-08-09T10:47:33.361Z,31.39
2023-08-09T10:50:21.250Z,30.75
2023-08-09T10:52:52.194Z,31.71
2023-08-09T10:55:38.305Z,32.37
2023-08-09T10:58:07.434Z,31.99
2023-08-09T11:00:41.077Z,32.57
2023-08-09T11:03:10.116Z,32.92
2023-08-09T11:05:40.370Z,32.47
2023-08-09T11:08:20.581Z,32.80
2023-08-09T11:10:50.461Z,32.12
2023-08-09T11:13:20.637Z,31.77
2023-08-09T11:15:51.503Z,31.13
2023-08-09T11:18:19.772Z,32.17
2023-08-09T11:20:47.735Z,32.92
2023-08-09T11:23:17.623Z,33.11
2023-08-09T11:25:45.644Z,32.25
2023-08-09T11:28:15.931Z,31.99
2023-08-09T11:30:47.027Z,33.02
2023-08-09T11:33:15.838Z,33.25
2023-08-09T11:35:46.338Z,33.45
2023-08-09T11:38:19.014Z,33.17
2023-08-09T11:40:53.475Z,31.85
2023-08-09T11:43:23.213Z,31.23
2023-08-09T11:45:53.981Z,31.96
2023-08-09T11:48:31.520Z,31.95
2023-08-09T11:51:08.141Z,32.98
2023-08-09T11:53:39.801Z,33.39
2023-08-09T11:56:09.414Z,33.23
2023-08-09T11:58:38.255Z,33.24
2023-08-09T12:01:22.108Z,32.60
2023-08-09T12:03:53.340Z,32.93
2023-08-09T12:06:36.279Z,32.85
2023-08-09T12:09:32.536Z,31.29
2023-08-09T12:12:09.540Z,30.42
2023-08-09T12:14:39.253Z,31.08
2023-08-09T12:17:08.828Z,29.94
2023-08-09T12:19:37.696Z,30.50
2023-08-09T12:22:06.769Z,30.97
2023-08-09T12:24:36.342Z,30.42
2023-08-09T12:27:05.230Z,29.99
2023-08-09T12:29:33.389Z,30.38
2023-08-09T12:32:01.847Z,30.37
2023-08-09T12:34:30.544Z,29.82
2023-08-09T12:36:58.957Z,29.45
2023-08-09T12:39:27.504Z,29.80
2023-08-09T12:41:57.450Z,29.40
2023-08-09T12:44:26.089Z,29.57
2023-08-09T12:46:55.028Z,29.98
2023-08-09T12:49:23.235Z,29.88
2023-08-09T12:51:51.296Z,29.78
2023-08-09T12:54:19.432Z,30.04
2023-08-09T12:56:47.488Z,30.07
2023-08-09T12:59:16.926Z,29.83
2023-08-09T13:01:45.067Z,29.62
2023-08-09T13:04:13.689Z,29.91
2023-08-09T13:06:41.786Z,29.98
2023-08-09T13:09:10.782Z,29.92
2023-08-09T13:11:38.889Z,28.52
2023-08-09T13:14:10.620Z,28.91
2023-08-09T13:16:40.234Z,29.33
2023-08-09T13:19:12.811Z,29.30
2023-08-09T13:21:42.031Z,28.84
2023-08-09T13:24:11.465Z,28.65
2023-08-09T13:26:39.504Z,28.93
2023-08-09T13:29:07.593Z,28.54
2023-08-09T13:31:35.604Z,28.33
2023-08-09T13:34:05.908Z,28.58
2023-08-09T13:36:33.998Z,28.66
2023-08-09T13:39:02.027Z,28.08
2023-08-09T13:41:30.127Z,28.79
2023-08-09T13:43:58.210Z,28.89
2023-08-09T13:46:26.254Z,28.56
2023-08-09T13:48:54.841Z,28.61
2023-08-09T13:51:24.329Z,28.53
2023-08-09T13:53:53.682Z,28.71
2023-08-09T13:56:21.777Z,28.47
2023-08-09T13:58:49.949Z,28.33
2023-08-09T14:01:18.033Z,28.11
2023-08-09T14:03:46.158Z,28.05
2023-08-09T14:06:14.180Z,27.82
2023-08-09T14:08:43.604Z,27.82
2023-08-09T14:11:11.655Z,28.02
2023-08-09T14:13:39.661Z,28.20
2023-08-09T14:16:07.823Z,28.17
2023-08-09T14:18:36.175Z,28.28
2023-08-09T14:21:04.333Z,28.46
2023-08-09T14:23:32.469Z,28.31
2023-08-09T14:26:03.155Z,28.16
2023-08-09T14:28:31.192Z,28.18
2023-08-09T14:30:59.451Z,28.36
2023-08-09T14:33:28.514Z,28.60
2023-08-09T14:35:57.772Z,28.42
2023-08-09T14:38:25.865Z,28.56
2023-08-09T14:40:55.468Z,28.55
2023-08-09T14:43:24.846Z,28.27
2023-08-09T14:45:53.407Z,28.10
2023-08-09T14:48:21.583Z,27.60
2023-08-09T14:50:49.735Z,27.79
2023-08-09T14:53:17.717Z,27.97
2023-08-09T14:55:46.477Z,27.70
2023-08-09T14:58:14.558Z,27.66
2023-08-09T15:00:44.137Z,27.76
2023-08-09T15:03:13.819Z,27.70
2023-08-09T15:05:42.004Z,27.72
2023-08-09T15:08:10.118Z,27.88
2023-08-09T15:10:38.778Z,27.81
2023-08-09T15:13:10.326Z,27.61
2023-08-09T15:15:38.387Z,27.89
2023-08-09T15:18:08.276Z,27.87
2023-08-09T15:20:36.312Z,28.04
2023-08-09T15:23:04.433Z,28.19
2023-08-09T15:25:32.420Z,28.16
2023-08-09T15:28:01.472Z,28.09
2023-08-09T15:30:30.234Z,28.05
2023-08-09T15:32:58.999Z,28.06
2023-08-09T15:35:28.521Z,28.08
2023-08-09T15:37:56.586Z,27.99
2023-08-09T15:40:24.913Z,27.96
2023-08-09T15:42:53.038Z,27.89
2023-08-09T15:45:21.016Z,27.97
2023-08-09T15:47:49.061Z,27.84
2023-08-09T15:50:17.089Z,27.84
2023-08-09T15:52:46.817Z,28.00
2023-08-09T15:55:14.930Z,27.99
2023-08-09T15:57:47.350Z,28.18
2023-08-09T16:00:18.237Z,27.95
2023-08-09T16:02:53.472Z,27.86
2023-08-09T16:05:24.358Z,27.82
2023-08-09T16:07:56.826Z,27.79
2023-08-09T16:10:25.456Z,27.76
2023-08-09T16:12:55.974Z,27.62
2023-08-09T16:15:26.365Z,27.65
2023-08-09T16:17:54.669Z,27.53
2023-08-09T16:20:25.645Z,27.41
2023-08-09T16:22:58.614Z,27.07
2023-08-09T16:25:31.490Z,27.36
2023-08-09T16:28:10.065Z,27.27
2023-08-09T16:30:41.715Z,27.18
2023-08-09T16:33:20.630Z,27.00
2023-08-09T16:35:50.213Z,26.92
2023-08-09T16:38:20.423Z,26.81
2023-08-09T16:40:52.444Z,26.81
2023-08-09T16:43:22.447Z,26.68
2023-08-09T16:45:50.576Z,26.38
2023-08-09T16:48:18.959Z,26.48
2023-08-09T16:50:47.529Z,26.40
2023-08-09T16:53:15.594Z,26.43
2023-08-09T16:55:44.932Z,26.38
2023-08-09T16:58:13.551Z,26.32
2023-08-09T17:00:41.721Z,26.16
2023-08-09T17:03:09.882Z,26.15
2023-08-09T17:05:40.579Z,25.78
2023-08-09T17:08:08.892Z,25.94
2023-08-09T17:10:37.021Z,25.97
2023-08-09T17:13:06.880Z,25.95
2023-08-09T17:15:35.071Z,25.87
2023-08-09T17:18:03.131Z,25.57
2023-08-09T17:20:36.179Z,25.35
2023-08-09T17:23:04.705Z,25.37
2023-08-09T17:25:32.923Z,25.26
2023-08-09T17:28:01.132Z,25.30
2023-08-09T17:30:30.511Z,25.25
2023-08-09T17:32:59.046Z,25.20
2023-08-09T17:35:28.023Z,25.17
2023-08-09T17:37:56.703Z,25.04
2023-08-09T17:40:25.214Z,24.97
2023-08-09T17:42:53.341Z,24.88
2023-08-09T17:45:21.797Z,24.94
2023-08-09T17:47:51.428Z,24.82
2023-08-09T17:50:19.737Z,24.87
2023-08-09T17:52:47.805Z,24.88
2023-08-09T17:55:16.011Z,24.01
2023-08-09T17:57:45.498Z,24.83
2023-08-09T18:00:17.423Z,24.58
2023-08-09T18:02:45.754Z,24.75
2023-08-09T18:05:15.514Z,24.78
2023-08-09T18:07:45.985Z,24.78
2023-08-09T18:10:16.103Z,24.75
2023-08-09T18:12:44.866Z,24.62
2023-08-09T18:15:12.908Z,24.35
2023-08-09T18:17:41.015Z,24.44
2023-08-09T18:20:13.228Z,24.32
2023-08-09T18:22:45.750Z,24.36
2023-08-09T18:25:13.788Z,24.25
2023-08-09T18:27:42.444Z,24.27
2023-08-09T18:30:11.856Z,24.25
2023-08-09T18:32:40.747Z,24.15
2023-08-09T18:35:18.114Z,24.00
2023-08-09T18:37:48.755Z,24.03
2023-08-09T18:40:17.799Z,23.74
2023-08-09T18:42:47.116Z,23.83
2023-08-09T18:45:16.364Z,23.93
2023-08-09T18:47:44.591Z,23.58
2023-08-09T18:50:13.000Z,23.70
2023-08-09T18:52:41.707Z,23.69
2023-08-09T18:55:12.410Z,23.56
2023-08-09T18:57:40.799Z,23.35
2023-08-09T19:00:13.572Z,23.47
2023-08-09T19:02:45.463Z,23.49
2023-08-09T19:08:00.101Z,23.26
2023-08-09T19:10:29.525Z,23.30
2023-08-09T19:12:57.532Z,22.46
2023-08-09T19:15:27.650Z,23.15
2023-08-09T19:17:56.497Z,23.16
2023-08-09T19:20:26.220Z,23.19
2023-08-09T19:22:56.227Z,23.15
2023-08-09T19:25:24.708Z,22.95
2023-08-09T19:27:54.419Z,23.13
2023-08-09T19:30:22.919Z,23.04
2023-08-09T19:32:52.621Z,22.89
2023-08-09T19:35:20.718Z,23.04
2023-08-09T19:37:48.716Z,22.96
2023-08-09T19:40:16.871Z,22.92
2023-08-09T19:42:45.029Z,22.88
2023-08-09T19:45:15.454Z,22.96
2023-08-09T19:47:43.594Z,22.89
2023-08-09T19:50:11.898Z,22.78
2023-08-09T19:52:40.071Z,22.78
2023-08-09T19:55:09.222Z,22.79
2023-08-09T19:57:37.386Z,22.56
2023-08-09T20:00:13.014Z,22.74
2023-08-09T20:02:42.583Z,22.78
2023-08-09T20:05:12.381Z,22.70
2023-08-09T20:07:43.540Z,22.55
2023-08-09T20:10:12.349Z,22.38
2023-08-09T20:12:40.474Z,22.48
2023-08-09T20:15:09.460Z,22.47
2023-08-09T20:17:37.528Z,22.47
2023-08-09T20:20:08.956Z,22.38
2023-08-09T20:22:38.804Z,22.35
2023-08-09T20:25:07.132Z,22.45
2023-08-09T20:27:35.150Z,22.27
2023-08-09T20:30:03.345Z,22.37
2023-08-09T20:32:31.827Z,22.21
2023-08-09T20:34:59.847Z,22.13
2023-08-09T20:37:29.409Z,22.29
2023-08-09T20:39:58.290Z,22.24
2023-08-09T20:42:27.663Z,21.76
2023-08-09T20:44:55.707Z,22.09
2023-08-09T20:47:23.793Z,22.06
2023-08-09T20:49:52.038Z,22.02
2023-08-09T20:52:20.111Z,22.14
2023-08-09T20:54:49.705Z,21.97
2023-08-09T20:57:18.151Z,22.13
2023-08-09T20:59:46.148Z,22.07
2023-08-09T21:02:14.201Z,21.99
2023-08-09T21:04:42.852Z,22.03
2023-08-09T21:07:11.315Z,21.81
2023-08-09T21:09:39.330Z,21.83
2023-08-09T21:12:09.272Z,20.98
2023-08-09T21:14:39.910Z,21.70
2023-08-09T21:17:08.617Z,21.67
2023-08-09T21:19:36.684Z,21.58
2023-08-09T21:22:05.175Z,21.54
2023-08-09T21:24:33.683Z,21.47
2023-08-09T21:27:01.732Z,21.47
2023-08-09T21:29:32.375Z,21.47
2023-08-09T21:32:01.803Z,21.42
2023-08-09T21:34:29.840Z,21.37
2023-08-09T21:36:57.858Z,21.31
2023-08-09T21:39:25.970Z,21.18
2023-08-09T21:41:54.060Z,21.39
2023-08-09T21:44:22.229Z,21.37
2023-08-09T21:46:51.829Z,21.30
2023-08-09T21:49:19.894Z,21.26
2023-08-09T21:51:47.948Z,21.28
2023-08-09T21:54:16.084Z,21.27
2023-08-09T21:56:44.156Z,20.97
2023-08-09T21:59:12.251Z,21.11
2023-08-09T22:01:41.082Z,20.95
2023-08-09T22:04:10.894Z,20.90
2023-08-09T22:06:38.912Z,20.86
2023-08-09T22:09:07.524Z,20.81
2023-08-09T22:11:35.660Z,20.66
2023-08-09T22:14:03.720Z,20.75
2023-08-09T22:16:32.222Z,20.72
2023-08-09T22:19:00.327Z,20.63
2023-08-09T22:23:57.991Z,20.52
2023-08-09T22:26:26.185Z,20.45
2023-08-09T22:28:54.313Z,20.50
2023-08-09T22:31:22.388Z,20.31
2023-08-09T22:33:51.283Z,20.44
2023-08-09T22:36:19.301Z,20.32
2023-08-09T22:38:48.713Z,20.47
2023-08-09T22:41:16.755Z,20.33
2023-08-09T22:43:44.795Z,20.47
2023-08-09T22:46:12.886Z,20.45
2023-08-09T22:48:40.964Z,20.47
2023-08-09T22:51:09.947Z,20.48
2023-08-09T22:53:38.061Z,20.45
2023-08-09T22:56:09.950Z,20.48
2023-08-09T22:58:37.974Z,20.51
2023-08-09T23:01:06.145Z,20.64
2023-08-09T23:03:34.337Z,20.64
2023-08-09T23:06:02.667Z,20.48
2023-08-09T23:08:30.733Z,20.53
2023-08-09T23:10:58.715Z,20.44
2023-08-09T23:13:28.126Z,20.43
2023-08-09T23:15:56.855Z,20.42
2023-08-09T23:18:25.098Z,20.53
2023-08-09T23:20:53.378Z,20.54
2023-08-09T23:23:21.488Z,20.39
2023-08-09T23:25:49.464Z,20.16
2023-08-09T23:28:17.424Z,20.10
2023-08-09T23:30:47.549Z,20.21
2023-08-09T23:33:17.244Z,20.24
2023-08-09T23:35:45.338Z,20.30
2023-08-09T23:38:13.380Z,20.30
2023-08-09T23:40:42.284Z,20.28
2023-08-09T23:43:10.325Z,20.23
2023-08-09T23:45:38.369Z,19.99
2023-08-09T23:48:09.020Z,19.90
2023-08-09T23:50:37.092Z,19.23
2023-08-09T23:53:06.065Z,20.03
2023-08-09T23:55:34.246Z,19.89
2023-08-09T23:58:02.361Z,20.06
